WZZ41 LHBP-EPWA
Flight info
| Callsign | WZZ41 |
|---|---|
| Flight time | 0h 53m |
| Altitude | 24000 |
| Route | LITKU Y301 KALIF/N0438F330 DCT KELEL DCT ORTEB/N0437F340 DCT KONZI DCT LOGDA |
| Aircraft | A21N/M-SDE2E3FGHIRWXY/LB1 |
Departure
| Time | 2026-05-04 19:01 |
|---|---|
| Airport | Budapest Liszt Ferenc International Airport (LHBP) |
Arrival
| Time | 2026-05-04 19:54 |
|---|---|
| Airport | Warsaw Chopin Airport (EPWA) |
| Time | Latitude | Longitude | Altitude | Speed | Heading |
|---|---|---|---|---|---|
| 2026-05-04 18:26 | 47.43538 | 19.26436 | 463 ft | 0 kts | 222° |
| 2026-05-04 18:51 | 47.43546 | 19.26447 | 462 ft | 0 kts | 226° |
| 2026-05-04 18:51 | 47.43562 | 19.26478 | 459 ft | 0 kts | 248° |
| 2026-05-04 18:52 | 47.43565 | 19.26511 | 459 ft | 0 kts | 302° |
| 2026-05-04 18:52 | 47.43561 | 19.26518 | 459 ft | 0 kts | 312° |
| 2026-05-04 18:56 | 47.43563 | 19.26515 | 463 ft | 2 kts | 312° |
| 2026-05-04 18:56 | 47.43582 | 19.26484 | 461 ft | 6 kts | 312° |
| 2026-05-04 18:56 | 47.43616 | 19.26429 | 463 ft | 8 kts | 312° |
| 2026-05-04 18:57 | 47.43660 | 19.26360 | 463 ft | 10 kts | 313° |
| 2026-05-04 18:57 | 47.43728 | 19.26386 | 462 ft | 13 kts | 45° |
| 2026-05-04 18:57 | 47.43806 | 19.26390 | 463 ft | 14 kts | 311° |
| 2026-05-04 18:57 | 47.43876 | 19.26276 | 463 ft | 16 kts | 313° |
| 2026-05-04 18:58 | 47.43962 | 19.26213 | 464 ft | 16 kts | 40° |
| 2026-05-04 18:58 | 47.43994 | 19.26262 | 465 ft | 2 kts | 42° |
| 2026-05-04 18:58 | 47.44003 | 19.26275 | 465 ft | 0 kts | 42° |
| 2026-05-04 18:59 | 47.44013 | 19.26288 | 466 ft | 3 kts | 42° |
| 2026-05-04 18:59 | 47.44038 | 19.26321 | 468 ft | 6 kts | 43° |
| 2026-05-04 18:59 | 47.44066 | 19.26391 | 474 ft | 10 kts | 73° |
| 2026-05-04 18:59 | 47.44063 | 19.26520 | 474 ft | 14 kts | 116° |
| 2026-05-04 19:00 | 47.43989 | 19.26651 | 472 ft | 21 kts | 134° |
| 2026-05-04 19:00 | 47.43734 | 19.27061 | 475 ft | 91 kts | 132° |
| 2026-05-04 19:00 | 47.43153 | 19.28001 | 467 ft | 152 kts | 133° |
| 2026-05-04 19:00 | 47.42365 | 19.29281 | 749 ft | 171 kts | 133° |
| 2026-05-04 19:01 | 47.41587 | 19.30626 | 1315 ft | 173 kts | 126° |
| 2026-05-04 19:01 | 47.41090 | 19.32240 | 1922 ft | 176 kts | 113° |
| 2026-05-04 19:01 | 47.40568 | 19.33955 | 2415 ft | 187 kts | 124° |
| 2026-05-04 19:01 | 47.39884 | 19.35646 | 2940 ft | 200 kts | 124° |
| 2026-05-04 19:02 | 47.39166 | 19.37485 | 3499 ft | 214 kts | 123° |
| 2026-05-04 19:02 | 47.38418 | 19.39482 | 3962 ft | 234 kts | 118° |
| 2026-05-04 19:02 | 47.38042 | 19.41949 | 4331 ft | 263 kts | 90° |
| 2026-05-04 19:02 | 47.38539 | 19.44608 | 4994 ft | 277 kts | 60° |
| 2026-05-04 19:03 | 47.39827 | 19.46760 | 5847 ft | 281 kts | 42° |
| 2026-05-04 19:03 | 47.41325 | 19.48638 | 6691 ft | 283 kts | 40° |
| 2026-05-04 19:03 | 47.42833 | 19.50537 | 7492 ft | 286 kts | 41° |
| 2026-05-04 19:03 | 47.44339 | 19.52481 | 8276 ft | 289 kts | 42° |
| 2026-05-04 19:04 | 47.45846 | 19.54479 | 9042 ft | 293 kts | 43° |
| 2026-05-04 19:04 | 47.47381 | 19.56499 | 9747 ft | 300 kts | 37° |
| 2026-05-04 19:04 | 47.49275 | 19.57834 | 10293 ft | 309 kts | 12° |
| 2026-05-04 19:04 | 47.51470 | 19.58114 | 10616 ft | 326 kts | 359° |
| 2026-05-04 19:05 | 47.53800 | 19.58084 | 10951 ft | 342 kts | 359° |
| 2026-05-04 19:05 | 47.56215 | 19.58064 | 11500 ft | 350 kts | 359° |
| 2026-05-04 19:05 | 47.58636 | 19.58080 | 12190 ft | 354 kts | 360° |
| 2026-05-04 19:05 | 47.61111 | 19.58124 | 12921 ft | 357 kts | 0° |
| 2026-05-04 19:06 | 47.63604 | 19.58183 | 13648 ft | 360 kts | 0° |
| 2026-05-04 19:06 | 47.66115 | 19.58249 | 14320 ft | 363 kts | 0° |
| 2026-05-04 19:06 | 47.68648 | 19.58320 | 14992 ft | 365 kts | 0° |
| 2026-05-04 19:06 | 47.71200 | 19.58394 | 15661 ft | 367 kts | 0° |
| 2026-05-04 19:07 | 47.73762 | 19.58466 | 16320 ft | 370 kts | 0° |
| 2026-05-04 19:07 | 47.76343 | 19.58538 | 16977 ft | 372 kts | 0° |
| 2026-05-04 19:07 | 47.78948 | 19.58613 | 17626 ft | 375 kts | 0° |
| 2026-05-04 19:07 | 47.81569 | 19.58684 | 18264 ft | 378 kts | 0° |
| 2026-05-04 19:08 | 47.84206 | 19.58759 | 18829 ft | 381 kts | 0° |
| 2026-05-04 19:08 | 47.86864 | 19.58833 | 19371 ft | 383 kts | 0° |
| 2026-05-04 19:08 | 47.89513 | 19.58908 | 19892 ft | 386 kts | 0° |
| 2026-05-04 19:08 | 47.92223 | 19.58983 | 20411 ft | 389 kts | 0° |
| 2026-05-04 19:09 | 47.94943 | 19.59058 | 20939 ft | 392 kts | 0° |
| 2026-05-04 19:09 | 47.97689 | 19.59136 | 21459 ft | 395 kts | 0° |
| 2026-05-04 19:09 | 48.00442 | 19.59214 | 21967 ft | 398 kts | 0° |
| 2026-05-04 19:09 | 48.03229 | 19.59294 | 22480 ft | 401 kts | 0° |
| 2026-05-04 19:10 | 48.06028 | 19.59375 | 22971 ft | 404 kts | 0° |
| 2026-05-04 19:10 | 48.08813 | 19.59985 | 23428 ft | 408 kts | 14° |
| 2026-05-04 19:10 | 48.11545 | 19.61231 | 23863 ft | 411 kts | 17° |
| 2026-05-04 19:10 | 48.14242 | 19.62536 | 24275 ft | 413 kts | 17° |
| 2026-05-04 19:11 | 48.16992 | 19.63834 | 24695 ft | 415 kts | 16° |
| 2026-05-04 19:11 | 48.19761 | 19.65120 | 25108 ft | 417 kts | 16° |
| 2026-05-04 19:11 | 48.22536 | 19.66397 | 25514 ft | 419 kts | 16° |
| 2026-05-04 19:11 | 48.25327 | 19.67679 | 25914 ft | 421 kts | 16° |
| 2026-05-04 19:12 | 48.28134 | 19.68974 | 26317 ft | 422 kts | 16° |
| 2026-05-04 19:12 | 48.33783 | 19.71583 | 27073 ft | 426 kts | 16° |
| 2026-05-04 19:12 | 48.36625 | 19.72892 | 27445 ft | 428 kts | 16° |
| 2026-05-04 19:13 | 48.39483 | 19.74213 | 27806 ft | 430 kts | 15° |
| 2026-05-04 19:13 | 48.42356 | 19.75537 | 28116 ft | 433 kts | 15° |
| 2026-05-04 19:13 | 48.45247 | 19.76872 | 28439 ft | 436 kts | 15° |
| 2026-05-04 19:13 | 48.48150 | 19.78215 | 28779 ft | 438 kts | 15° |
| 2026-05-04 19:14 | 48.51087 | 19.79518 | 29102 ft | 440 kts | 12° |
| 2026-05-04 19:14 | 48.54085 | 19.80473 | 29432 ft | 441 kts | 9° |
| 2026-05-04 19:14 | 48.57107 | 19.81358 | 29769 ft | 443 kts | 9° |
| 2026-05-04 19:14 | 48.60088 | 19.82236 | 30188 ft | 442 kts | 9° |
| 2026-05-04 19:15 | 48.63138 | 19.83158 | 30565 ft | 441 kts | 10° |
| 2026-05-04 19:15 | 48.66140 | 19.84080 | 30901 ft | 440 kts | 10° |
| 2026-05-04 19:15 | 48.69142 | 19.85003 | 31249 ft | 439 kts | 10° |
| 2026-05-04 19:15 | 48.72136 | 19.85928 | 31571 ft | 439 kts | 10° |
| 2026-05-04 19:16 | 48.75123 | 19.86849 | 31886 ft | 438 kts | 10° |
| 2026-05-04 19:16 | 48.78071 | 19.87760 | 32195 ft | 438 kts | 10° |
| 2026-05-04 19:16 | 48.81095 | 19.88697 | 32491 ft | 437 kts | 9° |
| 2026-05-04 19:16 | 48.84037 | 19.89612 | 32780 ft | 436 kts | 10° |
| 2026-05-04 19:17 | 48.87009 | 19.90537 | 33053 ft | 437 kts | 9° |
| 2026-05-04 19:17 | 48.92972 | 19.92387 | 33114 ft | 436 kts | 9° |
| 2026-05-04 19:18 | 48.98921 | 19.94226 | 33085 ft | 436 kts | 9° |
| 2026-05-04 19:18 | 49.04871 | 19.96089 | 33077 ft | 436 kts | 10° |
| 2026-05-04 19:19 | 49.10822 | 19.97956 | 33079 ft | 436 kts | 9° |
| 2026-05-04 19:19 | 49.16770 | 19.99828 | 33077 ft | 437 kts | 9° |
| 2026-05-04 19:20 | 49.22720 | 20.01694 | 33061 ft | 436 kts | 9° |
| 2026-05-04 19:20 | 49.28668 | 20.03566 | 33056 ft | 436 kts | 9° |
| 2026-05-04 19:21 | 49.34608 | 20.05437 | 33045 ft | 436 kts | 9° |
| 2026-05-04 19:21 | 49.40515 | 20.07320 | 33037 ft | 436 kts | 9° |
| 2026-05-04 19:22 | 49.46458 | 20.09207 | 33034 ft | 436 kts | 10° |
| 2026-05-04 19:22 | 49.52396 | 20.11098 | 33036 ft | 436 kts | 9° |
| 2026-05-04 19:23 | 49.58338 | 20.12989 | 33026 ft | 436 kts | 9° |
| 2026-05-04 19:23 | 49.64291 | 20.14892 | 33024 ft | 436 kts | 9° |
| 2026-05-04 19:24 | 49.70236 | 20.16797 | 33015 ft | 436 kts | 9° |
| 2026-05-04 19:24 | 49.76185 | 20.18718 | 33007 ft | 436 kts | 10° |
| 2026-05-04 19:25 | 49.82129 | 20.20643 | 33006 ft | 436 kts | 9° |
| 2026-05-04 19:25 | 49.88060 | 20.22700 | 32999 ft | 438 kts | 12° |
| 2026-05-04 19:26 | 49.93973 | 20.25032 | 32991 ft | 438 kts | 12° |
| 2026-05-04 19:26 | 49.99842 | 20.27339 | 32988 ft | 438 kts | 12° |
| 2026-05-04 19:27 | 50.05742 | 20.29660 | 32984 ft | 438 kts | 12° |
| 2026-05-04 19:27 | 50.11640 | 20.31995 | 32784 ft | 432 kts | 12° |
| 2026-05-04 19:27 | 50.14533 | 20.33169 | 32507 ft | 429 kts | 12° |
| 2026-05-04 19:28 | 50.17419 | 20.34325 | 32238 ft | 427 kts | 12° |
| 2026-05-04 19:28 | 50.20290 | 20.35470 | 31975 ft | 425 kts | 12° |
| 2026-05-04 19:28 | 50.23151 | 20.36591 | 31717 ft | 423 kts | 12° |
| 2026-05-04 19:28 | 50.25999 | 20.37728 | 31470 ft | 421 kts | 12° |
| 2026-05-04 19:29 | 50.28826 | 20.38854 | 31212 ft | 419 kts | 12° |
| 2026-05-04 19:29 | 50.31647 | 20.39983 | 30961 ft | 417 kts | 12° |
| 2026-05-04 19:29 | 50.34461 | 20.41109 | 30714 ft | 415 kts | 12° |
| 2026-05-04 19:29 | 50.37254 | 20.42208 | 30465 ft | 414 kts | 12° |
| 2026-05-04 19:30 | 50.40039 | 20.43331 | 30219 ft | 412 kts | 13° |
| 2026-05-04 19:30 | 50.42806 | 20.44453 | 29966 ft | 410 kts | 12° |
| 2026-05-04 19:30 | 50.45567 | 20.45552 | 29679 ft | 409 kts | 12° |
| 2026-05-04 19:30 | 50.48322 | 20.46623 | 29404 ft | 407 kts | 12° |
| 2026-05-04 19:31 | 50.51065 | 20.47712 | 29000 ft | 405 kts | 12° |
| 2026-05-04 19:31 | 50.53785 | 20.48788 | 28499 ft | 401 kts | 12° |
| 2026-05-04 19:31 | 50.56472 | 20.49873 | 27982 ft | 397 kts | 12° |
| 2026-05-04 19:31 | 50.59140 | 20.50945 | 27481 ft | 394 kts | 12° |
| 2026-05-04 19:32 | 50.61787 | 20.51990 | 26963 ft | 392 kts | 12° |
| 2026-05-04 19:32 | 50.64388 | 20.53033 | 26458 ft | 389 kts | 12° |
| 2026-05-04 19:32 | 50.66996 | 20.54077 | 25952 ft | 387 kts | 12° |
| 2026-05-04 19:32 | 50.69606 | 20.55127 | 25467 ft | 385 kts | 12° |
| 2026-05-04 19:33 | 50.72230 | 20.56189 | 24990 ft | 383 kts | 12° |
| 2026-05-04 19:33 | 50.74774 | 20.57217 | 24501 ft | 382 kts | 12° |
| 2026-05-04 19:33 | 50.77350 | 20.58260 | 24001 ft | 381 kts | 12° |
| 2026-05-04 19:33 | 50.79912 | 20.59303 | 23515 ft | 380 kts | 12° |
| 2026-05-04 19:34 | 50.82469 | 20.60344 | 22950 ft | 378 kts | 12° |
| 2026-05-04 19:34 | 50.85016 | 20.61378 | 22428 ft | 375 kts | 12° |
| 2026-05-04 19:34 | 50.87532 | 20.62403 | 21931 ft | 373 kts | 12° |
| 2026-05-04 19:34 | 50.89190 | 20.63080 | 21593 ft | 371 kts | 12° |
| 2026-05-04 19:35 | 50.91685 | 20.64102 | 21102 ft | 369 kts | 12° |
| 2026-05-04 19:35 | 50.94163 | 20.65116 | 20623 ft | 367 kts | 12° |
| 2026-05-04 19:35 | 50.96627 | 20.66127 | 20163 ft | 364 kts | 11° |
| 2026-05-04 19:35 | 50.99068 | 20.67124 | 19720 ft | 362 kts | 11° |
| 2026-05-04 19:36 | 51.01502 | 20.68118 | 19280 ft | 360 kts | 11° |
| 2026-05-04 19:36 | 51.03915 | 20.69109 | 18853 ft | 358 kts | 11° |
| 2026-05-04 19:36 | 51.06320 | 20.70095 | 18439 ft | 357 kts | 11° |
| 2026-05-04 19:36 | 51.08716 | 20.71086 | 17987 ft | 355 kts | 11° |
| 2026-05-04 19:37 | 51.11107 | 20.72068 | 17550 ft | 353 kts | 11° |
| 2026-05-04 19:37 | 51.13480 | 20.73046 | 17107 ft | 353 kts | 11° |
| 2026-05-04 19:37 | 51.15861 | 20.74029 | 16680 ft | 352 kts | 11° |
| 2026-05-04 19:37 | 51.18222 | 20.75004 | 16282 ft | 351 kts | 11° |
| 2026-05-04 19:38 | 51.20589 | 20.75977 | 15876 ft | 351 kts | 11° |
| 2026-05-04 19:38 | 51.22955 | 20.76957 | 15480 ft | 350 kts | 11° |
| 2026-05-04 19:38 | 51.25313 | 20.77935 | 15085 ft | 350 kts | 11° |
| 2026-05-04 19:38 | 51.27672 | 20.78915 | 14675 ft | 350 kts | 11° |
| 2026-05-04 19:39 | 51.30038 | 20.79895 | 14262 ft | 351 kts | 11° |
| 2026-05-04 19:39 | 51.32404 | 20.80881 | 13851 ft | 352 kts | 11° |
| 2026-05-04 19:39 | 51.34750 | 20.81854 | 13414 ft | 353 kts | 11° |
| 2026-05-04 19:39 | 51.37125 | 20.82838 | 12971 ft | 353 kts | 11° |
| 2026-05-04 19:40 | 51.39503 | 20.83831 | 12558 ft | 352 kts | 11° |
| 2026-05-04 19:40 | 51.41867 | 20.84820 | 12149 ft | 352 kts | 11° |
| 2026-05-04 19:40 | 51.44237 | 20.85811 | 11719 ft | 349 kts | 11° |
| 2026-05-04 19:40 | 51.46564 | 20.86787 | 11290 ft | 343 kts | 11° |
| 2026-05-04 19:41 | 51.48856 | 20.87746 | 10882 ft | 336 kts | 11° |
| 2026-05-04 19:41 | 51.51088 | 20.88685 | 10608 ft | 326 kts | 11° |
| 2026-05-04 19:41 | 51.53246 | 20.89600 | 10311 ft | 318 kts | 11° |
| 2026-05-04 19:41 | 51.55383 | 20.90499 | 10041 ft | 317 kts | 11° |
| 2026-05-04 19:42 | 51.57508 | 20.91430 | 9912 ft | 318 kts | 17° |
| 2026-05-04 19:42 | 51.59374 | 20.93194 | 9892 ft | 312 kts | 39° |
| 2026-05-04 19:42 | 51.60913 | 20.95659 | 9722 ft | 312 kts | 45° |
| 2026-05-04 19:42 | 51.62371 | 20.98238 | 9427 ft | 311 kts | 46° |
| 2026-05-04 19:43 | 51.63816 | 21.00823 | 9101 ft | 309 kts | 46° |
| 2026-05-04 19:43 | 51.65247 | 21.03381 | 8775 ft | 307 kts | 46° |
| 2026-05-04 19:43 | 51.66677 | 21.05925 | 8443 ft | 305 kts | 46° |
| 2026-05-04 19:43 | 51.68102 | 21.08450 | 8119 ft | 304 kts | 46° |
| 2026-05-04 19:44 | 51.69522 | 21.10956 | 7793 ft | 300 kts | 46° |
| 2026-05-04 19:44 | 51.70922 | 21.13416 | 7465 ft | 294 kts | 46° |
| 2026-05-04 19:44 | 51.72296 | 21.15820 | 7142 ft | 288 kts | 46° |
| 2026-05-04 19:44 | 51.73645 | 21.18170 | 6812 ft | 282 kts | 47° |
| 2026-05-04 19:45 | 51.74967 | 21.20460 | 6485 ft | 276 kts | 47° |
| 2026-05-04 19:45 | 51.76265 | 21.22698 | 6162 ft | 270 kts | 46° |
| 2026-05-04 19:45 | 51.77634 | 21.24688 | 5815 ft | 262 kts | 28° |
| 2026-05-04 19:45 | 51.79291 | 21.25561 | 5481 ft | 250 kts | 2° |
| 2026-05-04 19:46 | 51.81002 | 21.25699 | 5161 ft | 243 kts | 357° |
| 2026-05-04 19:46 | 51.82677 | 21.25748 | 4833 ft | 238 kts | 357° |
| 2026-05-04 19:46 | 51.84319 | 21.25785 | 4515 ft | 235 kts | 356° |
| 2026-05-04 19:46 | 51.85946 | 21.25746 | 4176 ft | 230 kts | 346° |
| 2026-05-04 19:47 | 51.87356 | 21.24738 | 3986 ft | 220 kts | 314° |
| 2026-05-04 19:47 | 51.88419 | 21.22983 | 3972 ft | 218 kts | 307° |
| 2026-05-04 19:47 | 51.89405 | 21.21157 | 3967 ft | 208 kts | 307° |
| 2026-05-04 19:47 | 51.90455 | 21.19540 | 3970 ft | 210 kts | 320° |
| 2026-05-04 19:48 | 51.91707 | 21.18274 | 3979 ft | 213 kts | 329° |
| 2026-05-04 19:48 | 51.93029 | 21.17183 | 3984 ft | 213 kts | 327° |
| 2026-05-04 19:48 | 51.94321 | 21.16068 | 3985 ft | 213 kts | 327° |
| 2026-05-04 19:48 | 51.95644 | 21.14923 | 3985 ft | 213 kts | 327° |
| 2026-05-04 19:49 | 51.96954 | 21.13788 | 3986 ft | 213 kts | 327° |
| 2026-05-04 19:49 | 51.98262 | 21.12654 | 4000 ft | 213 kts | 327° |
| 2026-05-04 19:49 | 51.99569 | 21.11521 | 3806 ft | 212 kts | 327° |
| 2026-05-04 19:49 | 52.00867 | 21.10394 | 3552 ft | 211 kts | 327° |
| 2026-05-04 19:50 | 52.02155 | 21.09275 | 3284 ft | 209 kts | 327° |
| 2026-05-04 19:50 | 52.03422 | 21.08175 | 3007 ft | 203 kts | 328° |
| 2026-05-04 19:50 | 52.04625 | 21.07129 | 2781 ft | 192 kts | 328° |
| 2026-05-04 19:50 | 52.05769 | 21.06134 | 2525 ft | 186 kts | 328° |
| 2026-05-04 19:51 | 52.06871 | 21.05180 | 2300 ft | 171 kts | 328° |
| 2026-05-04 19:51 | 52.07903 | 21.04291 | 2060 ft | 167 kts | 328° |
| 2026-05-04 19:51 | 52.08901 | 21.03434 | 1825 ft | 159 kts | 328° |
| 2026-05-04 19:51 | 52.09832 | 21.02645 | 1569 ft | 144 kts | 328° |
| 2026-05-04 19:52 | 52.10721 | 21.01888 | 1409 ft | 144 kts | 328° |
| 2026-05-04 19:52 | 52.11595 | 21.01081 | 1215 ft | 145 kts | 327° |
| 2026-05-04 19:52 | 52.12471 | 21.00261 | 1030 ft | 146 kts | 329° |
| 2026-05-04 19:52 | 52.13380 | 20.99502 | 835 ft | 146 kts | 331° |
| 2026-05-04 19:53 | 52.14278 | 20.98711 | 642 ft | 147 kts | 330° |
| 2026-05-04 19:53 | 52.15186 | 20.97925 | 450 ft | 149 kts | 330° |
| 2026-05-04 19:53 | 52.16082 | 20.97136 | 353 ft | 137 kts | 331° |
| 2026-05-04 19:53 | 52.16685 | 20.96613 | 350 ft | 55 kts | 332° |
| 2026-05-04 19:54 | 52.16919 | 20.96485 | 350 ft | 29 kts | 5° |
| 2026-05-04 19:54 | 52.17082 | 20.96546 | 344 ft | 15 kts | 50° |
| 2026-05-04 19:54 | 52.17100 | 20.96590 | 347 ft | 0 kts | 59° |
| 2026-05-04 19:56 | 52.17105 | 20.96604 | 347 ft | 4 kts | 64° |
| 2026-05-04 19:56 | 52.17123 | 20.96666 | 352 ft | 9 kts | 64° |
| 2026-05-04 19:56 | 52.17156 | 20.96775 | 352 ft | 11 kts | 62° |
| 2026-05-04 19:57 | 52.17141 | 20.96856 | 349 ft | 9 kts | 141° |
| 2026-05-04 19:57 | 52.17085 | 20.96909 | 348 ft | 4 kts | 152° |
| 2026-05-04 19:57 | 52.17052 | 20.96899 | 350 ft | 6 kts | 221° |
| 2026-05-04 19:57 | 52.17044 | 20.96835 | 344 ft | 4 kts | 281° |
| 2026-05-04 19:58 | 52.17047 | 20.96812 | 346 ft | 1 kts | 273° |
| 2026-05-04 19:58 | 52.17047 | 20.96801 | 348 ft | 0 kts | 275° |